Time;durP1;ratioP1;P1;durP2;ratioP2;P2;SDS_P1;SDS_P2;PMS_P1;PMS_P2;Temp;Humidity;BMP_temperature;BMP_pressure;BME280_temperature;BME280_humidity;BME280_pressure;Samples;Min_cycle;Max_cycle;Signal;HPM_P1;HPM_P2
2021/07/01 00:01:00;;;;;;;1.20;0.90;;;;;;;14.39;78.99;96545.63;5087434;28;20216;-69
2021/07/01 00:03:26;;;;;;;1.00;0.90;;;;;;;14.51;78.87;96552.00;5083394;28;20185;-69
2021/07/01 00:05:51;;;;;;;2.30;0.90;;;;;;;14.76;77.55;96543.66;5090637;28;20288;-70
2021/07/01 00:08:17;;;;;;;1.27;1.10;;;;;;;15.11;75.68;96541.00;5091967;28;20658;-70
2021/07/01 00:10:43;;;;;;;1.10;1.00;;;;;;;14.36;78.59;96543.41;5092464;28;20548;-69
2021/07/01 00:13:08;;;;;;;1.20;1.10;;;;;;;14.76;77.76;96546.28;5092265;28;20193;-68
2021/07/01 00:15:34;;;;;;;3.80;1.00;;;;;;;14.65;78.13;96550.28;5091593;28;20205;-69
2021/07/01 00:18:01;;;;;;;1.60;1.00;;;;;;;14.86;77.24;96544.13;5092217;28;20188;-67
2021/07/01 00:20:27;;;;;;;1.27;0.90;;;;;;;14.86;76.37;96548.56;5092527;28;20938;-70
2021/07/01 00:22:52;;;;;;;2.17;0.97;;;;;;;14.64;77.87;96545.16;5092029;28;20491;-69
2021/07/01 00:25:19;;;;;;;1.63;1.00;;;;;;;14.34;79.17;96543.56;5091110;28;20592;-70
2021/07/01 00:27:45;;;;;;;0.90;0.77;;;;;;;14.82;76.62;96547.31;5091769;28;20185;-70
2021/07/01 00:30:13;;;;;;;1.20;1.10;;;;;;;15.28;75.96;96541.44;5086769;28;20439;-69
2021/07/01 00:32:38;;;;;;;4.10;0.80;;;;;;;14.54;77.59;96546.34;5091607;28;20419;-68
2021/07/01 00:35:05;;;;;;;1.13;0.73;;;;;;;14.96;76.80;96550.88;5091074;28;21010;-68
2021/07/01 00:37:32;;;;;;;1.03;0.93;;;;;;;15.08;75.65;96549.28;5091110;28;20189;-69
2021/07/01 00:40:04;;;;;;;1.40;1.13;;;;;;;14.53;77.35;96550.00;5089702;28;20887;-68
2021/07/01 00:42:29;;;;;;;0.90;0.80;;;;;;;14.79;77.79;96548.53;5091635;28;20506;-69
2021/07/01 00:44:55;;;;;;;2.30;0.80;;;;;;;15.00;75.34;96557.34;5091183;28;20527;-69
2021/07/01 00:47:21;;;;;;;4.97;0.97;;;;;;;14.85;77.36;96553.06;5091218;28;20620;-69
2021/07/01 00:49:47;;;;;;;0.90;0.60;;;;;;;14.70;76.52;96555.78;5089784;28;20196;-69
2021/07/01 00:52:12;;;;;;;3.87;0.90;;;;;;;14.46;77.93;96550.94;5089618;28;20264;-69
2021/07/01 00:54:39;;;;;;;0.97;0.87;;;;;;;14.75;77.13;96547.28;5090799;28;20205;-69
2021/07/01 00:57:06;;;;;;;1.67;0.80;;;;;;;14.62;78.07;96550.66;5089669;28;20189;-69
2021/07/01 00:59:31;;;;;;;0.90;0.70;;;;;;;15.02;76.03;96550.06;5090472;28;20424;-68
2021/07/01 01:01:57;;;;;;;1.00;0.67;;;;;;;14.09;79.22;96543.19;5065762;28;20822;-69
2021/07/01 01:04:22;;;;;;;3.00;0.63;;;;;;;14.85;76.98;96549.59;5090238;28;20246;-69
2021/07/01 01:06:48;;;;;;;1.10;0.80;;;;;;;14.96;75.47;96548.22;5091088;28;20186;-69
2021/07/01 01:09:14;;;;;;;0.90;0.80;;;;;;;15.10;75.09;96549.09;5093183;28;20177;-69
2021/07/01 01:11:39;;;;;;;0.90;0.73;;;;;;;14.68;76.91;96552.53;5091247;28;20177;-68
2021/07/01 01:14:05;;;;;;;0.90;0.60;;;;;;;14.77;76.12;96547.91;5091053;28;20181;-69
2021/07/01 01:16:31;;;;;;;1.20;0.73;;;;;;;14.99;75.39;96553.91;5091284;28;20527;-69
2021/07/01 01:18:56;;;;;;;1.07;0.60;;;;;;;14.65;76.29;96557.34;5091647;28;20185;-68
2021/07/01 01:21:29;;;;;;;1.53;0.70;;;;;;;15.09;74.57;96553.56;5090878;28;20200;-69
2021/07/01 01:23:56;;;;;;;1.17;0.60;;;;;;;14.90;75.78;96555.91;5090902;28;20209;-69
2021/07/01 01:26:22;;;;;;;1.70;0.60;;;;;;;15.40;73.95;96549.59;5091141;28;20426;-69
2021/07/01 01:28:49;;;;;;;1.73;0.80;;;;;;;14.83;76.71;96552.44;5089862;28;20801;-68
2021/07/01 01:31:15;;;;;;;5.53;0.80;;;;;;;15.18;75.05;96546.28;5086164;28;20419;-68
2021/07/01 01:33:41;;;;;;;0.87;0.70;;;;;;;15.17;74.89;96548.09;5090702;28;20789;-70
2021/07/01 01:36:06;;;;;;;0.90;0.80;;;;;;;14.93;75.58;96546.81;5090676;28;20198;-69
2021/07/01 01:38:32;;;;;;;0.90;0.70;;;;;;;14.39;77.17;96543.00;5089330;28;20426;-70
2021/07/01 01:40:58;;;;;;;0.80;0.60;;;;;;;14.48;77.27;96555.03;5091046;28;20244;-69
2021/07/01 01:43:23;;;;;;;2.90;0.60;;;;;;;14.46;77.35;96549.13;5089171;28;20754;-69
2021/07/01 01:45:52;;;;;;;1.10;0.80;;;;;;;15.17;74.98;96547.31;5090781;28;20205;-68
2021/07/01 01:48:18;;;;;;;2.90;0.87;;;;;;;15.05;74.81;96549.69;5090748;28;20549;-69
2021/07/01 01:50:43;;;;;;;7.33;0.87;;;;;;;15.05;74.50;96553.16;5090948;28;20416;-69
2021/07/01 01:53:10;;;;;;;0.90;0.80;;;;;;;14.91;75.39;96554.09;5091680;28;20842;-68
2021/07/01 01:55:36;;;;;;;0.83;0.70;;;;;;;15.16;74.71;96551.75;5091585;28;20561;-70
2021/07/01 01:58:03;;;;;;;1.77;0.80;;;;;;;14.99;74.32;96553.13;5090830;28;20814;-69
2021/07/01 02:00:30;;;;;;;1.40;0.90;;;;;;;15.07;74.58;96547.66;5085790;28;20440;-69
2021/07/01 02:02:56;;;;;;;4.53;0.87;;;;;;;14.55;76.36;96555.88;5091061;28;20427;-68
2021/07/01 02:05:22;;;;;;;0.93;0.80;;;;;;;15.18;74.56;96549.72;5094400;28;20442;-68
2021/07/01 02:07:48;;;;;;;1.00;0.87;;;;;;;15.02;74.89;96552.69;5096089;28;20428;-70
2021/07/01 02:10:16;;;;;;;0.90;0.77;;;;;;;15.03;74.87;96551.69;5096523;28;20555;-70
2021/07/01 02:12:42;;;;;;;1.00;0.80;;;;;;;15.09;74.32;96553.56;5093987;28;20970;-70
2021/07/01 02:15:10;;;;;;;1.43;0.70;;;;;;;15.03;74.47;96552.53;5093410;28;20539;-69
2021/07/01 02:17:35;;;;;;;4.30;0.80;;;;;;;15.19;73.41;96559.28;5093808;28;20177;-70
2021/07/01 02:20:12;;;;;;;0.90;0.80;;;;;;;15.20;74.08;96565.34;5093522;28;20726;-70
2021/07/01 02:22:38;;;;;;;1.60;1.20;;;;;;;15.00;74.13;96560.00;5092843;28;20200;-69
2021/07/01 02:25:05;;;;;;;3.20;0.90;;;;;;;15.31;73.78;96561.34;5093525;28;20942;-70
2021/07/01 02:27:30;;;;;;;1.30;1.00;;;;;;;15.15;73.92;96563.31;5094062;28;20911;-69
2021/07/01 02:29:56;;;;;;;2.93;0.90;;;;;;;15.22;74.19;96562.53;5089743;28;20497;-68
2021/07/01 02:32:22;;;;;;;6.10;0.80;;;;;;;15.38;73.58;96564.00;5093109;28;20174;-69
2021/07/01 02:34:48;;;;;;;3.10;2.30;;;;;;;15.28;74.03;96569.66;5093853;28;20202;-69
2021/07/01 02:37:14;;;;;;;0.90;0.67;;;;;;;14.92;74.66;96563.63;5093381;28;20182;-69
2021/07/01 02:39:40;;;;;;;0.90;0.80;;;;;;;14.96;75.48;96564.06;5093852;28;20432;-68
2021/07/01 02:42:06;;;;;;;0.90;0.70;;;;;;;15.36;74.41;96559.75;5093647;28;20206;-69
2021/07/01 02:44:32;;;;;;;1.33;1.00;;;;;;;15.71;72.26;96566.75;5093195;28;20447;-69
2021/07/01 02:46:58;;;;;;;2.40;1.00;;;;;;;15.13;74.88;96570.59;5093490;28;20188;-69
2021/07/01 02:49:23;;;;;;;1.53;1.20;;;;;;;15.19;73.94;96575.13;5093669;28;20268;-70
2021/07/01 02:51:49;;;;;;;6.50;0.90;;;;;;;15.00;74.87;96568.75;5093665;28;20178;-70
2021/07/01 02:54:15;;;;;;;1.20;1.10;;;;;;;15.43;73.63;96572.16;5092199;28;20198;-69
2021/07/01 02:56:41;;;;;;;1.70;1.03;;;;;;;15.03;74.83;96578.06;5091943;28;20173;-69
2021/07/01 02:59:09;;;;;;;1.47;0.77;;;;;;;15.21;75.19;96569.63;5092162;28;20480;-69
2021/07/01 03:01:34;;;;;;;1.07;0.83;;;;;;;14.98;75.75;96575.22;5091009;28;20443;-69
2021/07/01 03:04:00;;;;;;;1.00;0.80;;;;;;;15.37;73.93;96568.50;5091349;28;20424;-69
2021/07/01 03:06:26;;;;;;;1.77;0.90;;;;;;;15.67;72.04;96570.78;5093225;28;20181;-69
2021/07/01 03:08:54;;;;;;;1.43;0.80;;;;;;;15.73;72.07;96570.00;5093389;28;20182;-69
2021/07/01 03:11:20;;;;;;;1.30;0.87;;;;;;;15.24;73.96;96571.09;5092956;28;20284;-69
2021/07/01 03:13:45;;;;;;;1.10;0.80;;;;;;;14.59;76.38;96572.97;5093428;28;20502;-69
2021/07/01 03:16:15;;;;;;;7.80;0.80;;;;;;;15.01;75.56;96566.91;5092454;28;20469;-68
2021/07/01 03:18:41;;;;;;;1.57;0.87;;;;;;;14.76;76.04;96577.94;5091387;28;20202;-69
2021/07/01 03:21:07;;;;;;;1.00;0.90;;;;;;;14.67;77.54;96579.06;5092628;28;20497;-68
2021/07/01 03:23:34;;;;;;;2.33;0.90;;;;;;;14.83;77.41;96567.41;5092379;28;20181;-67
2021/07/01 03:26:00;;;;;;;1.13;1.03;;;;;;;15.08;76.17;96573.03;5092748;28;20567;-68
2021/07/01 03:28:25;;;;;;;1.53;1.00;;;;;;;15.11;75.28;96572.66;5091431;28;20408;-68
2021/07/01 03:30:51;;;;;;;1.00;0.90;;;;;;;15.27;75.03;96565.38;5087795;28;20333;-67
2021/07/01 03:33:16;;;;;;;1.40;0.90;;;;;;;14.76;77.64;96574.50;5092362;28;20368;-68
2021/07/01 03:35:42;;;;;;;5.03;1.30;;;;;;;15.24;75.58;96566.59;5091051;28;20205;-68
2021/07/01 03:38:07;;;;;;;2.17;1.00;;;;;;;15.35;75.10;96573.94;5089727;28;20180;-68
2021/07/01 03:40:33;;;;;;;1.73;0.80;;;;;;;14.70;77.51;96568.19;5092223;28;20205;-69
2021/07/01 03:42:59;;;;;;;4.13;1.17;;;;;;;15.14;75.71;96566.97;5092284;28;20247;-69
2021/07/01 03:45:24;;;;;;;1.27;1.03;;;;;;;14.54;78.65;96575.34;5088398;28;20648;-69
2021/07/01 03:47:50;;;;;;;3.20;1.20;;;;;;;14.83;77.33;96576.16;5085625;28;20181;-68
2021/07/01 03:50:16;;;;;;;2.37;1.07;;;;;;;14.98;76.33;96568.13;5092158;28;20225;-69
2021/07/01 03:52:42;;;;;;;1.20;1.10;;;;;;;15.09;76.57;96571.19;5092018;28;20588;-69
2021/07/01 03:55:08;;;;;;;1.70;1.10;;;;;;;15.64;73.96;96561.44;5091416;28;20443;-69
2021/07/01 03:57:33;;;;;;;6.50;1.50;;;;;;;14.84;76.75;96569.88;5091801;28;20612;-69
2021/07/01 04:00:02;;;;;;;1.67;1.13;;;;;;;15.29;75.72;96573.91;5091906;28;20473;-69
2021/07/01 04:02:27;;;;;;;2.07;1.30;;;;;;;15.13;76.76;96573.25;5083766;28;20243;-69
2021/07/01 04:04:53;;;;;;;1.67;1.00;;;;;;;15.36;75.42;96574.78;5091791;28;20534;-69
2021/07/01 04:07:18;;;;;;;1.33;1.23;;;;;;;15.53;74.02;96580.50;5090361;28;20174;-69
2021/07/01 04:09:44;;;;;;;1.20;1.10;;;;;;;15.61;73.93;96576.88;5090211;28;20257;-69
2021/07/01 04:12:10;;;;;;;1.30;1.20;;;;;;;15.43;74.75;96586.16;5091585;28;20174;-68
2021/07/01 04:14:35;;;;;;;2.10;1.10;;;;;;;15.54;74.43;96582.16;5091537;28;20197;-68
2021/07/01 04:17:01;;;;;;;3.53;1.20;;;;;;;15.78;73.26;96588.69;5089518;28;20207;-68
2021/07/01 04:19:27;;;;;;;1.43;1.10;;;;;;;15.99;72.35;96588.75;5091723;28;20166;-68
2021/07/01 04:21:52;;;;;;;1.53;1.20;;;;;;;15.45;74.72;96593.88;5091304;28;20204;-69
2021/07/01 04:24:18;;;;;;;2.10;1.17;;;;;;;15.64;73.70;96593.13;5091215;28;20224;-70
2021/07/01 04:26:43;;;;;;;1.60;1.50;;;;;;;15.38;74.74;96593.84;5092453;28;20260;-70
2021/07/01 04:29:09;;;;;;;1.40;1.30;;;;;;;15.57;73.93;96602.06;5092664;28;20200;-67
2021/07/01 04:31:35;;;;;;;2.13;1.57;;;;;;;15.14;75.63;96596.00;5092599;28;20511;-70
2021/07/01 04:34:04;;;;;;;1.30;1.20;;;;;;;15.45;74.91;96592.06;5092210;28;20177;-68
2021/07/01 04:36:30;;;;;;;1.23;1.13;;;;;;;15.14;75.19;96592.56;5093004;28;20227;-69
2021/07/01 04:38:55;;;;;;;1.77;0.90;;;;;;;15.43;75.36;96596.72;5091462;28;20787;-69
2021/07/01 04:41:22;;;;;;;2.80;1.10;;;;;;;15.85;73.31;96594.00;5091461;28;20567;-70
2021/07/01 04:43:48;;;;;;;2.90;1.20;;;;;;;15.17;75.83;96603.53;5090089;28;20648;-69
2021/07/01 04:46:14;;;;;;;4.03;1.30;;;;;;;15.48;74.52;96599.59;5089570;28;20452;-69
2021/07/01 04:48:42;;;;;;;3.20;1.30;;;;;;;15.41;74.60;96597.94;5094805;28;20428;-69
2021/07/01 04:51:08;;;;;;;1.67;1.03;;;;;;;15.28;74.93;96596.06;5094037;28;20423;-69
2021/07/01 04:53:34;;;;;;;1.80;1.23;;;;;;;15.04;76.24;96603.47;5094298;28;20427;-70
2021/07/01 04:56:00;;;;;;;1.73;1.40;;;;;;;15.71;73.99;96600.25;5091511;28;20950;-69
2021/07/01 04:58:25;;;;;;;2.87;1.40;;;;;;;15.86;72.96;96594.84;5082997;28;20178;-69
2021/07/01 05:00:51;;;;;;;1.40;1.30;;;;;;;15.48;73.01;96594.31;5091303;28;20209;-69
2021/07/01 05:03:16;;;;;;;1.37;1.27;;;;;;;15.33;75.62;96605.00;5091023;28;20663;-70
2021/07/01 05:05:42;;;;;;;1.33;1.23;;;;;;;15.68;73.68;96593.53;5091142;28;20221;-70
2021/07/01 05:08:08;;;;;;;1.40;1.30;;;;;;;15.86;73.39;96597.47;5090631;28;20177;-69
2021/07/01 05:10:34;;;;;;;7.13;1.27;;;;;;;15.18;75.44;96604.34;5093782;28;20249;-69
2021/07/01 05:12:59;;;;;;;2.27;1.40;;;;;;;15.41;75.97;96597.94;5091530;28;20220;-69
2021/07/01 05:15:25;;;;;;;3.20;1.47;;;;;;;15.39;75.23;96600.75;5090859;28;20443;-69
2021/07/01 05:17:50;;;;;;;3.20;1.60;;;;;;;15.78;74.58;96598.44;5089540;28;20700;-69
2021/07/01 05:20:16;;;;;;;2.63;1.60;;;;;;;15.75;73.67;96602.28;5091883;28;20210;-68
2021/07/01 05:22:42;;;;;;;3.17;1.40;;;;;;;15.58;75.10;96598.41;5091155;28;20193;-69
2021/07/01 05:25:08;;;;;;;1.40;1.30;;;;;;;16.10;73.55;96602.19;5091059;28;20698;-70
2021/07/01 05:27:34;;;;;;;1.77;1.67;;;;;;;16.01;73.33;96598.09;5091239;28;20182;-69
2021/07/01 05:30:00;;;;;;;1.30;1.20;;;;;;;15.94;73.43;96603.38;5090992;28;20502;-70
2021/07/01 05:32:25;;;;;;;1.93;1.60;;;;;;;16.01;73.32;96598.09;5082588;28;20193;-68
2021/07/01 05:34:51;;;;;;;1.80;1.70;;;;;;;15.90;73.47;96607.44;5090888;28;20202;-69
2021/07/01 05:37:17;;;;;;;1.50;1.40;;;;;;;16.46;71.72;96604.63;5071324;28;20198;-70
2021/07/01 05:39:42;;;;;;;1.70;1.40;;;;;;;16.48;71.68;96602.59;5093512;28;20272;-68
2021/07/01 05:42:08;;;;;;;1.60;1.50;;;;;;;16.46;71.01;96605.44;5094640;28;20546;-68
2021/07/01 05:44:34;;;;;;;2.97;1.37;;;;;;;15.94;72.44;96613.13;5094697;28;20212;-69
2021/07/01 05:46:59;;;;;;;2.10;1.40;;;;;;;16.09;72.71;96611.13;5089616;28;20249;-69
2021/07/01 05:49:25;;;;;;;2.53;1.90;;;;;;;16.22;72.06;96594.44;5095953;28;20683;-70
2021/07/01 05:51:55;;;;;;;1.40;1.30;;;;;;;16.33;71.59;96600.97;5096509;28;20182;-69
2021/07/01 05:56:46;;;;;;;3.93;1.70;;;;;;;16.38;70.91;96609.09;5090597;28;20427;-69
2021/07/01 05:59:12;;;;;;;3.23;1.37;;;;;;;16.35;71.07;96608.69;5094760;28;20189;-69
2021/07/01 06:01:39;;;;;;;3.83;2.10;;;;;;;16.28;71.25;96612.16;5094833;28;20252;-69
2021/07/01 06:04:06;;;;;;;4.80;2.10;;;;;;;16.29;71.13;96615.59;5094030;28;20424;-69
2021/07/01 06:06:36;;;;;;;2.47;2.00;;;;;;;15.80;72.14;96618.38;5094653;28;20468;-68
2021/07/01 06:09:05;;;;;;;8.77;2.90;;;;;;;16.67;70.03;96620.28;5098711;28;20444;-69
2021/07/01 06:11:35;;;;;;;6.23;3.87;;;;;;;16.81;69.57;96620.25;5098469;28;20732;-68
2021/07/01 06:14:01;;;;;;;4.40;2.80;;;;;;;16.81;69.31;96621.06;5094036;28;20447;-68
2021/07/01 06:16:29;;;;;;;5.17;2.33;;;;;;;15.66;73.15;96629.91;5076198;28;20443;-68
2021/07/01 06:18:55;;;;;;;1.67;1.57;;;;;;;15.95;72.16;96630.63;5094624;28;20447;-69
2021/07/01 06:21:22;;;;;;;7.63;1.70;;;;;;;15.96;71.22;96634.91;5093911;28;20513;-69
2021/07/01 06:23:48;;;;;;;2.33;1.60;;;;;;;15.90;72.33;96633.88;5095110;28;20780;-69
2021/07/01 06:26:15;;;;;;;2.27;1.73;;;;;;;16.01;71.71;96629.00;5094662;28;20528;-69
2021/07/01 06:28:42;;;;;;;1.60;1.47;;;;;;;16.15;71.42;96635.09;5095163;28;20427;-68
2021/07/01 06:31:10;;;;;;;2.73;1.40;;;;;;;16.47;70.52;96617.63;5092880;28;20525;-68
2021/07/01 06:33:39;;;;;;;4.20;1.80;;;;;;;16.23;70.98;96630.44;5093426;28;20411;-69
2021/07/01 06:36:05;;;;;;;2.77;1.50;;;;;;;16.44;69.91;96633.94;5094003;28;20530;-69
2021/07/01 06:38:32;;;;;;;5.93;1.60;;;;;;;16.59;69.56;96633.72;5092397;28;20423;-69
2021/07/01 06:41:00;;;;;;;1.50;1.30;;;;;;;16.39;69.78;96631.88;5092718;28;20447;-69
2021/07/01 06:43:26;;;;;;;2.07;1.73;;;;;;;16.46;69.81;96631.88;5093575;28;20419;-69
2021/07/01 06:45:56;;;;;;;2.03;1.43;;;;;;;16.83;68.65;96640.19;5092253;28;20451;-69
2021/07/01 06:48:23;;;;;;;2.10;1.57;;;;;;;16.27;70.30;96642.25;5094236;28;20903;-69
2021/07/01 06:50:52;;;;;;;2.40;1.60;;;;;;;16.31;70.35;96650.59;5093495;28;20510;-68
2021/07/01 06:53:20;;;;;;;10.20;1.67;;;;;;;16.76;69.31;96639.41;5093348;28;20518;-68
2021/07/01 06:55:46;;;;;;;4.73;2.73;;;;;;;16.83;69.55;96648.13;5094067;28;20448;-68
2021/07/01 06:58:12;;;;;;;1.80;1.70;;;;;;;16.95;68.58;96639.63;5091785;28;20991;-69
2021/07/01 07:00:38;;;;;;;3.50;2.50;;;;;;;16.99;68.86;96646.09;5091913;28;20450;-68
2021/07/01 07:03:05;;;;;;;4.83;2.13;;;;;;;16.67;69.25;96644.06;5093260;28;20415;-69
2021/07/01 07:05:30;;;;;;;3.73;2.50;;;;;;;16.67;69.57;96643.28;5093083;28;20674;-69
2021/07/01 07:07:56;;;;;;;2.00;1.90;;;;;;;17.00;68.66;96645.91;5093263;28;20484;-69
2021/07/01 07:10:22;;;;;;;2.40;2.07;;;;;;;17.25;67.22;96641.75;5092935;28;20253;-69
2021/07/01 07:12:51;;;;;;;5.83;2.33;;;;;;;17.07;68.56;96645.06;5092732;28;20556;-69
2021/07/01 07:15:27;;;;;;;3.53;2.30;;;;;;;16.50;70.02;96641.03;5094449;28;20280;-69
2021/07/01 07:17:53;;;;;;;4.07;2.77;;;;;;;16.49;69.86;96646.53;5093340;28;20855;-69
2021/07/01 07:20:23;;;;;;;3.97;3.17;;;;;;;17.35;67.59;96642.13;5093199;28;20967;-69
2021/07/01 07:22:50;;;;;;;2.90;2.53;;;;;;;17.25;67.45;96653.19;5092620;28;20818;-69
2021/07/01 07:25:15;;;;;;;2.63;2.30;;;;;;;17.58;66.67;96640.84;5092742;28;20452;-68
2021/07/01 07:27:54;;;;;;;10.53;2.77;;;;;;;17.90;65.73;96641.66;5090721;28;20502;-68
2021/07/01 07:30:21;;;;;;;2.60;2.40;;;;;;;16.79;68.11;96654.88;5092706;28;20190;-70
2021/07/01 07:32:47;;;;;;;4.50;1.87;;;;;;;17.59;65.53;96659.16;5091196;28;20489;-69
2021/07/01 07:35:14;;;;;;;6.03;2.27;;;;;;;17.84;64.23;96657.59;5090825;28;20451;-69
2021/07/01 07:37:40;;;;;;;2.83;2.50;;;;;;;17.81;63.87;96664.16;5092362;28;20178;-68
2021/07/01 07:40:06;;;;;;;2.70;1.90;;;;;;;17.83;62.81;96656.00;5092145;28;20925;-70
2021/07/01 07:42:32;;;;;;;3.20;2.20;;;;;;;17.75;62.48;96660.50;5093308;28;20656;-69
2021/07/01 07:44:59;;;;;;;4.20;2.40;;;;;;;17.99;62.53;96650.22;5092205;28;20508;-69
2021/07/01 07:47:28;;;;;;;16.83;5.57;;;;;;;18.26;61.66;96644.75;5092369;28;20274;-68
2021/07/01 07:49:54;;;;;;;4.03;2.80;;;;;;;18.30;61.59;96642.47;5092221;28;20495;-69
2021/07/01 07:52:20;;;;;;;3.83;2.30;;;;;;;17.71;63.11;96654.00;5092064;28;21886;-68
2021/07/01 07:54:48;;;;;;;4.57;3.00;;;;;;;18.05;62.72;96646.72;5091400;28;20346;-68
2021/07/01 07:57:15;;;;;;;4.50;2.97;;;;;;;17.80;62.60;96654.56;5090549;28;20423;-69
2021/07/01 07:59:43;;;;;;;2.60;2.40;;;;;;;17.82;62.33;96644.56;5090852;28;20411;-69
2021/07/01 08:02:36;;;;;;;3.30;2.67;;;;;;;18.25;61.54;96649.25;5090172;28;20459;-69
2021/07/01 08:05:01;;;;;;;5.50;3.10;;;;;;;18.22;61.70;96644.38;5090958;28;20935;-69
2021/07/01 08:07:29;;;;;;;2.50;2.30;;;;;;;18.50;60.78;96648.44;5090710;28;20416;-69
2021/07/01 08:09:55;;;;;;;3.27;2.97;;;;;;;17.89;63.26;96650.66;5090841;28;20197;-70
2021/07/01 08:12:20;;;;;;;3.57;2.60;;;;;;;18.66;61.39;96648.91;5090585;28;20420;-69
2021/07/01 08:14:46;;;;;;;3.27;2.30;;;;;;;18.37;61.04;96653.84;5091436;28;20469;-68
2021/07/01 08:17:15;;;;;;;4.83;3.40;;;;;;;18.68;60.70;96652.16;5091567;28;20186;-68
2021/07/01 08:19:41;;;;;;;3.53;2.50;;;;;;;18.64;60.59;96648.34;5091843;28;20238;-69
2021/07/01 08:22:09;;;;;;;3.10;2.23;;;;;;;18.93;59.51;96646.84;5091868;28;20460;-69
2021/07/01 08:24:35;;;;;;;2.40;2.20;;;;;;;18.56;60.50;96652.88;5091515;28;20211;-70
2021/07/01 08:27:01;;;;;;;6.37;3.30;;;;;;;18.81;58.30;96651.25;5089383;28;20462;-69
2021/07/01 08:29:27;;;;;;;2.60;2.40;;;;;;;18.35;59.07;96647.94;5091118;28;20431;-69
2021/07/01 08:31:53;;;;;;;2.70;2.50;;;;;;;18.44;59.19;96648.50;5091227;28;20420;-69
2021/07/01 08:34:21;;;;;;;3.30;2.40;;;;;;;18.08;59.45;96656.09;5089066;28;20182;-68
2021/07/01 08:36:48;;;;;;;2.93;2.70;;;;;;;18.24;59.78;96650.28;5091740;28;20230;-68
2021/07/01 08:39:13;;;;;;;3.73;2.47;;;;;;;18.17;59.20;96652.16;5090899;28;20442;-69
2021/07/01 08:41:43;;;;;;;4.13;3.23;;;;;;;18.07;59.22;96651.81;5091516;28;20459;-70
2021/07/01 08:44:14;;;;;;;3.00;2.70;;;;;;;17.88;58.79;96654.34;5088945;28;20186;-68
2021/07/01 08:46:54;;;;;;;4.93;2.80;;;;;;;17.91;59.55;96658.41;5091319;28;20435;-69
2021/07/01 08:49:29;;;;;;;3.40;3.10;;;;;;;17.83;60.13;96654.16;5090072;28;20423;-68
2021/07/01 08:51:56;;;;;;;3.10;2.90;;;;;;;18.22;60.10;96652.31;5091072;28;20437;-69
2021/07/01 08:54:29;;;;;;;3.30;3.00;;;;;;;18.14;61.21;96657.91;5090587;28;20455;-68
2021/07/01 08:56:56;;;;;;;3.23;2.93;;;;;;;18.31;61.51;96660.00;5088829;28;20423;-69
2021/07/01 08:59:24;;;;;;;3.43;3.13;;;;;;;18.24;61.95;96674.16;5090739;28;20419;-69
2021/07/01 09:02:01;;;;;;;5.00;3.30;;;;;;;18.09;62.38;96670.97;5091242;28;20828;-69
2021/07/01 09:04:42;;;;;;;3.43;3.10;;;;;;;18.31;61.10;96675.94;5090880;28;20451;-69
2021/07/01 09:07:15;;;;;;;4.27;2.90;;;;;;;18.21;60.90;96682.53;5092033;28;20431;-69
2021/07/01 09:09:41;;;;;;;3.20;3.00;;;;;;;18.44;59.87;96678.47;5089946;28;20423;-69
2021/07/01 09:12:08;;;;;;;4.30;3.30;;;;;;;18.37;60.76;96670.56;5089880;28;20430;-69
2021/07/01 09:14:36;;;;;;;3.13;2.83;;;;;;;18.71;59.61;96668.47;5094258;28;20439;-69
2021/07/01 09:17:10;;;;;;;3.50;3.20;;;;;;;18.85;59.05;96671.00;5095272;28;20462;-69
2021/07/01 09:19:38;;;;;;;3.43;3.13;;;;;;;18.18;60.29;96672.34;5095187;28;20422;-69
2021/07/01 09:22:04;;;;;;;11.17;5.43;;;;;;;18.55;59.22;96675.13;5094587;28;20544;-69
2021/07/01 09:24:35;;;;;;;16.10;5.60;;;;;;;18.60;59.35;96671.81;5059940;28;21001;-69
2021/07/01 09:27:03;;;;;;;15.23;6.57;;;;;;;18.45;60.15;96669.50;5093003;28;20420;-69
2021/07/01 09:29:30;;;;;;;19.07;7.10;;;;;;;17.85;60.77;96675.97;5095623;28;20414;-69
2021/07/01 09:31:57;;;;;;;5.10;3.63;;;;;;;17.88;60.15;96678.19;5094339;28;20422;-67
2021/07/01 09:34:22;;;;;;;3.67;3.23;;;;;;;18.06;59.87;96679.34;5094443;28;20514;-68
2021/07/01 09:36:48;;;;;;;9.07;3.30;;;;;;;18.34;59.98;96672.84;5095131;28;20450;-69
2021/07/01 09:39:15;;;;;;;8.40;4.10;;;;;;;18.58;59.27;96669.41;5094325;28;20197;-68
2021/07/01 09:41:41;;;;;;;6.23;3.10;;;;;;;18.63;58.48;96667.94;5095012;28;20238;-68
2021/07/01 09:44:06;;;;;;;3.37;3.07;;;;;;;19.02;57.44;96669.44;5093363;28;20411;-69
2021/07/01 09:46:33;;;;;;;3.77;3.47;;;;;;;19.68;55.73;96676.91;5094864;28;20186;-69
2021/07/01 09:49:01;;;;;;;3.00;2.80;;;;;;;19.60;55.62;96674.56;5093338;28;20229;-67
2021/07/01 09:51:29;;;;;;;3.47;3.17;;;;;;;19.44;55.64;96676.78;5093417;28;20419;-69
2021/07/01 09:53:55;;;;;;;4.77;3.37;;;;;;;19.15;56.64;96680.97;5094538;28;20510;-69
2021/07/01 09:56:37;;;;;;;2.70;2.50;;;;;;;19.07;56.41;96675.97;5092361;28;20466;-69
2021/07/01 09:59:04;;;;;;;2.63;2.43;;;;;;;19.01;55.52;96680.31;5094458;28;20755;-69
2021/07/01 10:01:36;;;;;;;2.60;2.40;;;;;;;18.79;55.77;96672.69;5092935;28;20504;-70
2021/07/01 10:04:01;;;;;;;4.10;2.67;;;;;;;19.14;55.29;96666.06;5092734;28;20439;-69
2021/07/01 10:06:27;;;;;;;3.43;3.13;;;;;;;19.17;55.61;96677.06;5094544;28;20454;-68
2021/07/01 10:08:54;;;;;;;2.30;2.10;;;;;;;19.00;55.65;96671.50;5093741;28;20182;-68
2021/07/01 10:11:41;;;;;;;2.17;2.07;;;;;;;19.23;55.70;96678.03;5092822;28;20420;-69
2021/07/01 10:14:11;;;;;;;1.90;1.80;;;;;;;18.93;55.65;96675.22;5094435;28;20416;-69
2021/07/01 10:16:38;;;;;;;3.40;1.90;;;;;;;18.42;57.50;96688.50;5095235;28;20818;-70
2021/07/01 10:19:07;;;;;;;2.50;2.30;;;;;;;18.42;56.03;96680.53;5094928;28;20428;-69
2021/07/01 10:21:33;;;;;;;2.70;2.10;;;;;;;18.75;55.84;96684.78;5094062;28;20523;-68
2021/07/01 10:24:13;;;;;;;2.30;2.20;;;;;;;19.08;54.86;96685.56;5096703;28;20764;-69
2021/07/01 10:26:41;;;;;;;3.63;2.10;;;;;;;19.34;54.60;96685.25;5088264;28;20404;-68
2021/07/01 10:29:06;;;;;;;3.40;2.53;;;;;;;19.26;54.50;96679.44;5094678;28;20424;-69
2021/07/01 10:31:46;;;;;;;1.87;1.77;;;;;;;18.79;55.01;96680.66;5077919;28;20477;-68
2021/07/01 10:34:13;;;;;;;1.77;1.67;;;;;;;19.00;54.71;96686.63;5097024;28;20430;-68
2021/07/01 10:36:38;;;;;;;4.60;1.90;;;;;;;18.78;55.39;96684.34;5098908;28;20771;-70
2021/07/01 10:39:04;;;;;;;2.70;2.50;;;;;;;19.07;54.47;96686.59;5102291;28;20518;-70
2021/07/01 10:41:31;;;;;;;3.17;2.70;;;;;;;18.80;54.99;96682.28;5109006;28;20227;-69
2021/07/01 10:43:58;;;;;;;3.63;2.67;;;;;;;18.45;56.65;96688.06;5109199;28;20193;-69
2021/07/01 10:46:45;;;;;;;2.47;2.27;;;;;;;18.26;57.59;96688.00;5108076;28;20450;-70
2021/07/01 10:49:11;;;;;;;2.20;2.00;;;;;;;18.91;55.93;96682.59;5101963;28;20640;-68
2021/07/01 10:51:37;;;;;;;3.30;2.10;;;;;;;19.26;54.84;96684.75;5093478;28;20527;-69
2021/07/01 10:54:14;;;;;;;2.30;1.90;;;;;;;18.50;57.17;96688.25;5091425;28;20428;-70
2021/07/01 10:56:43;;;;;;;2.80;2.60;;;;;;;18.40;57.93;96694.03;5091010;28;20215;-70
2021/07/01 10:59:13;;;;;;;2.47;2.37;;;;;;;18.32;57.99;96694.28;5075302;28;20447;-69
2021/07/01 11:01:41;;;;;;;1.87;1.77;;;;;;;17.75;61.91;96704.75;5093845;28;20443;-70
2021/07/01 11:04:13;;;;;;;3.10;2.27;;;;;;;17.42;64.29;96703.84;5093105;28;20428;-69
2021/07/01 11:06:41;;;;;;;2.00;1.80;;;;;;;17.15;64.63;96701.25;5093274;28;20432;-69
2021/07/01 11:09:09;;;;;;;2.23;2.10;;;;;;;17.37;64.32;96710.78;5092539;28;20427;-69
2021/07/01 11:11:37;;;;;;;2.90;2.50;;;;;;;17.28;65.64;96710.19;5092532;28;20416;-69
2021/07/01 11:14:13;;;;;;;2.57;2.37;;;;;;;17.09;65.53;96711.84;5092296;28;20565;-69
2021/07/01 11:16:43;;;;;;;2.57;2.33;;;;;;;17.40;64.43;96703.25;5100242;28;20473;-69
2021/07/01 11:19:12;;;;;;;2.80;2.60;;;;;;;17.37;63.87;96713.44;5092354;28;20796;-68
2021/07/01 11:21:53;;;;;;;2.80;2.60;;;;;;;17.25;64.40;96713.25;5092338;28;20517;-68
2021/07/01 11:24:24;;;;;;;3.10;2.80;;;;;;;17.02;64.43;96715.31;5092993;28;20435;-69
2021/07/01 11:26:56;;;;;;;2.57;2.37;;;;;;;17.09;63.96;96709.22;5090289;28;20489;-68
2021/07/01 11:29:43;;;;;;;3.00;2.40;;;;;;;16.95;63.65;96711.88;5090889;28;20428;-69
2021/07/01 11:32:28;;;;;;;3.37;2.77;;;;;;;17.54;62.09;96719.91;5092130;28;20450;-69
2021/07/01 11:34:55;;;;;;;3.20;2.90;;;;;;;17.48;62.55;96716.25;5092104;28;20585;-69
2021/07/01 11:37:38;;;;;;;2.70;2.50;;;;;;;17.43;63.02;96720.53;5091846;28;20423;-68